Time;durP1;ratioP1;P1;durP2;ratioP2;P2;SDS_P1;SDS_P2;PMS_P1;PMS_P2;Temp;Humidity;BMP_temperature;BMP_pressure;BME280_temperature;BME280_humidity;BME280_pressure;Samples;Min_cycle;Max_cycle;Signal;HPM_P1;HPM_P2
2021/01/23 00:01:13;;;;;;;13.57;7.50;;;;;;;3.89;72.69;93701.28;5088200;28;20799;-65
2021/01/23 00:03:39;;;;;;;13.38;8.27;;;;;;;3.82;72.90;93711.84;5068873;28;20047;-65
2021/01/23 00:06:05;;;;;;;13.93;8.50;;;;;;;3.79;72.97;93712.53;5067717;28;20048;-66
2021/01/23 00:08:31;;;;;;;14.40;7.97;;;;;;;3.80;73.08;93703.31;5067538;28;20044;-66
2021/01/23 00:10:57;;;;;;;13.77;8.57;;;;;;;3.84;72.94;93700.75;5085729;28;20043;-65
2021/01/23 00:13:23;;;;;;;14.23;9.40;;;;;;;3.77;73.04;93706.69;5088094;28;20054;-65
2021/01/23 00:15:49;;;;;;;17.65;9.13;;;;;;;3.72;73.05;93712.31;5086703;28;20122;-65
2021/01/23 00:18:15;;;;;;;14.82;9.45;;;;;;;3.65;73.27;93714.78;5087849;28;20052;-66
2021/01/23 00:20:41;;;;;;;17.40;9.27;;;;;;;3.61;73.60;93711.22;5087400;28;20611;-66
2021/01/23 00:23:07;;;;;;;15.48;9.48;;;;;;;3.58;74.08;93711.88;5088005;28;20056;-65
2021/01/23 00:25:35;;;;;;;14.65;9.88;;;;;;;3.58;73.53;93715.34;5087481;28;20075;-65
2021/01/23 00:28:01;;;;;;;17.50;9.48;;;;;;;3.59;73.14;93718.81;5087613;28;20079;-65
2021/01/23 00:30:28;;;;;;;14.70;9.90;;;;;;;3.63;73.16;93717.03;5087322;28;20394;-65
2021/01/23 00:32:53;;;;;;;14.60;9.63;;;;;;;3.64;73.22;93729.34;5075599;28;20053;-65
2021/01/23 00:35:19;;;;;;;15.00;9.50;;;;;;;3.58;73.03;93742.25;5067050;28;20048;-65
2021/01/23 00:37:47;;;;;;;15.68;9.85;;;;;;;3.54;73.50;93760.19;5066968;28;20048;-65
2021/01/23 00:40:13;;;;;;;17.40;10.13;;;;;;;3.32;73.99;93764.09;5079100;28;20105;-65
2021/01/23 00:42:39;;;;;;;17.10;9.85;;;;;;;3.13;74.99;93766.53;5087169;28;20095;-65
2021/01/23 00:45:07;;;;;;;13.98;9.27;;;;;;;3.18;74.88;93765.53;5087483;28;20583;-65
2021/01/23 00:47:33;;;;;;;15.02;9.27;;;;;;;3.00;75.34;93778.41;5087937;28;20047;-65
2021/01/23 00:49:59;;;;;;;15.98;9.50;;;;;;;2.79;76.42;93784.63;5087896;28;20056;-65
2021/01/23 00:52:25;;;;;;;18.08;10.38;;;;;;;2.79;76.63;93778.47;5086450;28;20051;-65
2021/01/23 00:54:51;;;;;;;18.42;11.00;;;;;;;2.79;76.67;93784.63;5090617;28;20073;-65
2021/01/23 00:57:18;;;;;;;17.30;11.35;;;;;;;2.71;77.10;93798.13;5089937;28;20048;-65
2021/01/23 00:59:44;;;;;;;20.25;11.68;;;;;;;2.75;76.91;93805.19;5090020;28;20422;-65
2021/01/23 01:02:09;;;;;;;16.30;10.80;;;;;;;2.76;76.83;93800.63;5083723;28;20049;-65
2021/01/23 01:04:36;;;;;;;18.30;11.50;;;;;;;2.68;77.20;93810.34;5069762;28;20033;-65
2021/01/23 01:07:02;;;;;;;21.27;12.30;;;;;;;2.54;77.61;93815.97;5070134;28;20102;-66
2021/01/23 01:09:28;;;;;;;18.55;11.75;;;;;;;2.47;78.08;93825.69;5075408;28;20044;-65
2021/01/23 01:11:54;;;;;;;20.40;12.73;;;;;;;2.43;78.18;93825.56;5091035;28;20044;-65
2021/01/23 01:14:20;;;;;;;19.95;12.57;;;;;;;2.47;78.18;93836.44;5089412;28;20141;-65
2021/01/23 01:16:46;;;;;;;21.35;12.70;;;;;;;2.54;78.03;93831.31;5090699;28;20040;-65
2021/01/23 01:19:12;;;;;;;20.88;12.20;;;;;;;2.55;77.94;93838.25;5089563;28;20127;-65
2021/01/23 01:21:39;;;;;;;21.58;12.48;;;;;;;2.69;77.83;93833.41;5090229;28;20070;-65
2021/01/23 01:24:06;;;;;;;21.50;13.25;;;;;;;2.59;78.00;93829.22;5089840;28;20097;-65
2021/01/23 01:26:32;;;;;;;19.15;12.82;;;;;;;2.60;78.25;93846.09;5089644;28;20071;-65
2021/01/23 01:28:58;;;;;;;22.35;13.38;;;;;;;2.69;78.14;93849.53;5090469;28;20406;-65
2021/01/23 01:31:24;;;;;;;22.67;13.23;;;;;;;2.65;78.42;93864.72;5089051;28;20036;-65
2021/01/23 01:33:50;;;;;;;21.33;12.93;;;;;;;2.72;78.46;93878.44;5070615;28;20049;-65
2021/01/23 01:36:16;;;;;;;22.00;13.77;;;;;;;2.73;78.33;93877.31;5068856;28;20037;-65
2021/01/23 01:38:43;;;;;;;23.13;14.60;;;;;;;2.78;78.66;93892.47;5070499;28;20395;-65
2021/01/23 01:41:09;;;;;;;22.13;14.48;;;;;;;2.78;79.10;93890.56;5088439;28;20044;-65
2021/01/23 01:43:35;;;;;;;22.45;14.70;;;;;;;2.74;79.71;93907.66;5090579;28;20044;-65
2021/01/23 01:46:03;;;;;;;21.33;14.18;;;;;;;2.78;79.75;93912.06;5089678;28;20047;-65
2021/01/23 01:48:28;;;;;;;26.50;13.98;;;;;;;2.68;80.37;93928.56;5077678;28;20453;-65
2021/01/23 01:50:55;;;;;;;26.42;16.73;;;;;;;2.61;80.82;93934.47;5070030;28;20045;-65
2021/01/23 01:53:22;;;;;;;25.10;16.20;;;;;;;2.73;80.89;93924.91;5068998;28;20045;-65
2021/01/23 01:55:49;;;;;;;24.27;15.95;;;;;;;2.78;81.06;93933.56;5070292;28;20051;-64
2021/01/23 01:58:15;;;;;;;25.05;16.67;;;;;;;2.80;81.47;93931.31;5068570;28;20048;-65
2021/01/23 02:00:41;;;;;;;26.17;17.38;;;;;;;2.84;81.69;93937.63;5070183;28;20110;-65
2021/01/23 02:03:34;;;;;;;27.63;17.30;;;;;;;2.86;81.97;93942.66;5066974;28;20064;-67
2021/01/23 02:06:12;;;;;;;26.27;16.95;;;;;;;2.89;81.94;93939.31;5069905;28;20056;-64
2021/01/23 02:08:52;;;;;;;25.67;17.30;;;;;;;2.90;82.42;93951.63;5089900;28;20506;-64
2021/01/23 02:11:27;;;;;;;29.33;18.38;;;;;;;2.82;83.26;93961.34;5068911;28;20044;-67
2021/01/23 02:14:00;;;;;;;28.33;18.98;;;;;;;2.83;83.36;93968.28;5070235;28;20053;-65
2021/01/23 02:16:30;;;;;;;31.77;20.92;;;;;;;2.79;84.01;93982.72;5068545;28;20044;-65
2021/01/23 02:19:00;;;;;;;31.27;19.33;;;;;;;2.83;84.45;93995.16;5070086;28;20049;-65
2021/01/23 02:21:54;;;;;;;30.17;19.15;;;;;;;2.87;84.37;94000.66;5068843;28;20124;-64
2021/01/23 02:24:24;;;;;;;28.65;16.92;;;;;;;2.88;84.81;94021.88;5068854;28;20056;-65
2021/01/23 02:27:09;;;;;;;27.85;18.35;;;;;;;2.85;85.04;94019.81;5069717;28;20048;-65
2021/01/23 02:30:00;;;;;;;28.95;18.30;;;;;;;2.98;85.12;94022.59;5068769;28;20047;-65
2021/01/23 02:32:30;;;;;;;28.60;18.38;;;;;;;2.91;85.44;94027.69;5070143;28;20041;-65
2021/01/23 02:34:59;;;;;;;30.98;19.10;;;;;;;2.84;85.86;94045.13;5069131;28;20049;-65
2021/01/23 02:37:26;;;;;;;30.73;17.58;;;;;;;2.87;86.23;94043.66;5068850;28;20044;-65
2021/01/23 02:39:53;;;;;;;25.33;16.00;;;;;;;2.83;86.45;94059.69;5080633;28;20036;-65
2021/01/23 02:42:19;;;;;;;23.77;13.55;;;;;;;2.76;86.76;94069.34;5092346;28;20040;-65
2021/01/23 02:44:45;;;;;;;21.13;12.50;;;;;;;2.61;86.83;94078.78;5093562;28;20101;-65
2021/01/23 02:47:11;;;;;;;17.83;11.10;;;;;;;2.48;86.94;94079.75;5092067;28;20075;-65
2021/01/23 02:49:38;;;;;;;11.40;8.40;;;;;;;2.27;86.80;94112.69;5093861;28;20040;-65
2021/01/23 02:52:11;;;;;;;11.57;7.30;;;;;;;2.06;86.95;94088.41;5092044;28;20048;-65
2021/01/23 02:54:39;;;;;;;;;;;;;;;2.05;86.72;94113.69;5093994;28;20047;-65
2021/01/23 02:57:10;;;;;;;6.65;4.93;;;;;;;1.81;86.74;94116.84;5092336;28;19924;-65
2021/01/23 02:59:39;;;;;;;5.70;4.40;;;;;;;1.52;86.88;94119.41;5092587;28;20040;-65
2021/01/23 03:02:07;;;;;;;5.38;3.45;;;;;;;1.39;87.35;94120.34;5086694;28;20193;-65
2021/01/23 03:04:36;;;;;;;4.75;3.03;;;;;;;1.23;87.34;94134.19;5072068;28;20047;-65
2021/01/23 03:07:03;;;;;;;4.75;3.03;;;;;;;1.11;87.84;94142.06;5072475;28;20048;-66
2021/01/23 03:09:29;;;;;;;5.47;3.38;;;;;;;0.97;88.40;94136.03;5077658;28;20055;-65
2021/01/23 03:11:55;;;;;;;5.68;3.28;;;;;;;0.92;88.77;94150.34;5093318;28;20131;-65
2021/01/23 03:14:21;;;;;;;4.57;3.17;;;;;;;0.85;89.01;94152.72;5091630;28;20068;-65
2021/01/23 03:16:48;;;;;;;4.43;3.10;;;;;;;0.80;89.29;94174.28;5093004;28;20094;-65
2021/01/23 03:19:14;;;;;;;4.70;2.85;;;;;;;0.81;89.61;94201.84;5091726;28;20113;-65
2021/01/23 03:21:40;;;;;;;5.18;3.13;;;;;;;0.80;89.73;94201.06;5092564;28;20502;-65
2021/01/23 03:24:08;;;;;;;5.40;3.05;;;;;;;0.84;89.58;94206.59;5092055;28;20052;-66
2021/01/23 03:26:34;;;;;;;4.75;2.85;;;;;;;0.78;89.59;94214.78;5091667;28;20119;-66
2021/01/23 03:29:01;;;;;;;4.50;2.90;;;;;;;0.74;89.31;94224.53;5092532;28;20387;-65
2021/01/23 03:31:27;;;;;;;4.32;2.70;;;;;;;0.67;89.50;94234.88;5083809;28;20544;-65
2021/01/23 03:33:53;;;;;;;5.07;2.97;;;;;;;0.61;89.81;94236.09;5072723;28;20052;-66
2021/01/23 03:36:18;;;;;;;4.38;3.10;;;;;;;0.59;89.96;94216.09;5070905;28;20045;-66
2021/01/23 03:38:44;;;;;;;4.30;2.72;;;;;;;0.60;90.00;94223.81;5072581;28;20037;-66
2021/01/23 03:41:11;;;;;;;3.92;2.38;;;;;;;0.58;90.09;94239.41;5090727;28;20441;-66
2021/01/23 03:43:37;;;;;;;4.18;2.72;;;;;;;0.52;90.05;94238.75;5092736;28;20036;-66
2021/01/23 03:46:03;;;;;;;3.28;2.20;;;;;;;0.47;90.17;94259.47;5092120;28;20052;-66
2021/01/23 03:48:29;;;;;;;3.20;2.13;;;;;;;0.49;90.19;94270.69;5091816;28;20607;-65
2021/01/23 03:50:55;;;;;;;3.95;2.47;;;;;;;0.43;90.33;94271.91;5091929;28;20040;-66
2021/01/23 03:53:21;;;;;;;3.35;2.20;;;;;;;0.46;90.37;94271.28;5090858;28;20044;-68
2021/01/23 03:55:47;;;;;;;3.72;2.22;;;;;;;0.38;90.61;94275.50;5092248;28;20394;-65
2021/01/23 03:58:16;;;;;;;3.75;2.13;;;;;;;0.43;90.70;94287.97;5090561;28;20048;-66
2021/01/23 04:00:42;;;;;;;4.22;2.70;;;;;;;0.44;90.75;94294.91;5092037;28;20051;-68
2021/01/23 04:03:08;;;;;;;3.20;2.05;;;;;;;0.43;90.54;94294.13;5071676;28;20044;-68
2021/01/23 04:05:34;;;;;;;3.13;2.10;;;;;;;0.40;90.61;94284.00;5071786;28;20048;-66
2021/01/23 04:08:00;;;;;;;3.92;2.67;;;;;;;0.40;90.61;94285.91;5070941;28;20064;-66
2021/01/23 04:10:26;;;;;;;4.15;2.42;;;;;;;0.36;90.74;94277.66;5084610;28;20513;-66
2021/01/23 04:12:52;;;;;;;4.00;2.47;;;;;;;0.36;90.94;94268.84;5091494;28;20048;-66
2021/01/23 04:15:19;;;;;;;2.90;2.10;;;;;;;0.32;90.80;94292.00;5090712;28;20047;-66
2021/01/23 04:17:45;;;;;;;2.80;1.88;;;;;;;0.36;90.71;94280.34;5091531;28;20419;-66
2021/01/23 04:20:11;;;;;;;3.03;2.17;;;;;;;0.32;90.63;94302.72;5090389;28;20705;-65
2021/01/23 04:22:37;;;;;;;2.97;1.92;;;;;;;0.31;90.56;94295.75;5091782;28;20048;-66
2021/01/23 04:25:04;;;;;;;3.20;2.17;;;;;;;0.32;90.64;94294.69;5090106;28;20490;-65
2021/01/23 04:27:31;;;;;;;2.97;1.92;;;;;;;0.30;90.65;94308.34;5091639;28;20407;-65
2021/01/23 04:29:57;;;;;;;3.33;2.15;;;;;;;0.28;90.63;94315.09;5090455;28;20040;-65
2021/01/23 04:32:23;;;;;;;2.90;1.85;;;;;;;0.30;90.66;94304.88;5078372;28;20051;-65
2021/01/23 04:34:49;;;;;;;3.00;2.03;;;;;;;0.25;90.82;94319.94;5070418;28;20048;-65
2021/01/23 04:37:15;;;;;;;2.83;1.98;;;;;;;0.27;90.84;94321.56;5070245;28;20106;-65
2021/01/23 04:39:41;;;;;;;2.33;1.65;;;;;;;0.30;90.79;94307.56;5078318;28;20043;-65
2021/01/23 04:42:08;;;;;;;2.28;1.52;;;;;;;0.27;90.74;94319.66;5090165;28;20044;-65
2021/01/23 04:44:35;;;;;;;2.30;1.55;;;;;;;0.28;90.71;94315.09;5091234;28;20040;-65
2021/01/23 04:47:02;;;;;;;2.00;1.50;;;;;;;0.25;90.64;94324.53;5090331;28;20044;-65
2021/01/23 04:49:29;;;;;;;1.40;1.20;;;;;;;0.28;90.53;94317.78;5091138;28;20044;-65
2021/01/23 04:51:55;;;;;;;1.73;1.27;;;;;;;0.21;90.56;94332.38;5090070;28;20048;-65
2021/01/23 04:54:21;;;;;;;1.70;1.27;;;;;;;0.22;90.74;94322.47;5090906;28;21012;-65
2021/01/23 04:56:50;;;;;;;1.65;1.23;;;;;;;0.23;90.71;94316.78;5090312;28;20047;-65
2021/01/23 04:59:16;;;;;;;1.27;1.10;;;;;;;0.23;90.77;94332.84;5090242;28;20051;-65
2021/01/23 05:01:41;;;;;;;2.72;1.30;;;;;;;0.21;90.55;94321.66;5082931;28;20048;-65
2021/01/23 05:04:07;;;;;;;1.17;1.00;;;;;;;0.26;90.54;94331.44;5069787;28;20102;-65
2021/01/23 05:06:34;;;;;;;1.20;1.02;;;;;;;0.23;90.48;94354.28;5070471;28;20052;-67
2021/01/23 05:09:01;;;;;;;1.50;1.20;;;;;;;0.22;90.41;94360.72;5071573;28;20517;-65
2021/01/23 05:11:45;;;;;;;1.83;1.38;;;;;;;0.20;90.33;94370.13;5090578;28;20060;-65
2021/01/23 05:14:12;;;;;;;1.65;1.35;;;;;;;0.19;90.60;94380.06;5089463;28;20074;-65
2021/01/23 05:16:39;;;;;;;2.00;1.40;;;;;;;0.16;90.56;94391.38;5090799;28;20052;-65
2021/01/23 05:19:06;;;;;;;1.55;1.30;;;;;;;0.15;90.71;94405.03;5089352;28;20051;-65
2021/01/23 05:21:33;;;;;;;1.58;1.23;;;;;;;0.16;90.80;94407.44;5090509;28;20040;-65
2021/01/23 05:24:11;;;;;;;1.88;1.42;;;;;;;0.18;90.69;94420.50;5090219;28;20047;-65
2021/01/23 05:26:38;;;;;;;1.00;0.82;;;;;;;0.15;90.57;94416.53;5069496;28;20044;-65
2021/01/23 05:29:12;;;;;;;1.10;1.00;;;;;;;0.12;90.69;94417.16;5069975;28;20053;-67
2021/01/23 05:31:39;;;;;;;1.55;1.10;;;;;;;0.13;90.78;94420.59;5069179;28;20041;-65
2021/01/23 05:34:26;;;;;;;1.30;1.10;;;;;;;0.14;90.89;94420.31;5070089;28;20052;-66
2021/01/23 05:36:53;;;;;;;1.30;1.17;;;;;;;0.14;90.65;94425.66;5070598;28;20127;-65
2021/01/23 05:39:19;;;;;;;1.52;1.20;;;;;;;0.13;90.76;94425.97;5069572;28;20044;-65
2021/01/23 05:42:03;;;;;;;1.05;0.95;;;;;;;0.14;90.72;94424.88;5069786;28;20159;-66
2021/01/23 05:44:29;;;;;;;1.40;0.90;;;;;;;0.12;90.89;94422.50;5089436;28;20044;-65
2021/01/23 05:46:55;;;;;;;0.90;0.80;;;;;;;0.13;90.71;94434.78;5090559;28;20127;-65
2021/01/23 05:49:21;;;;;;;0.77;0.75;;;;;;;0.16;90.47;94444.91;5071330;28;20043;-65
2021/01/23 05:51:47;;;;;;;0.77;0.77;;;;;;;0.14;90.58;94441.72;5090634;28;20465;-65
2021/01/23 05:54:14;;;;;;;0.82;0.80;;;;;;;0.09;90.63;94447.16;5089075;28;20095;-66
2021/01/23 05:56:41;;;;;;;0.80;0.70;;;;;;;0.14;90.95;94452.41;5090413;28;20044;-65
2021/01/23 05:59:07;;;;;;;0.82;0.80;;;;;;;0.21;90.83;94462.75;5089120;28;20048;-65
2021/01/23 06:01:34;;;;;;;1.25;1.00;;;;;;;0.22;90.71;94475.81;5084250;28;20507;-65
2021/01/23 06:04:01;;;;;;;1.20;1.00;;;;;;;0.24;90.75;94487.00;5069808;28;20079;-66
2021/01/23 06:06:43;;;;;;;0.98;0.88;;;;;;;0.24;90.38;94505.75;5069276;28;20033;-67
2021/01/23 06:09:34;;;;;;;1.00;0.90;;;;;;;0.32;90.28;94500.81;5072808;28;20059;-65
2021/01/23 06:12:00;;;;;;;1.20;1.10;;;;;;;0.29;90.33;94515.56;5089334;28;20117;-65
2021/01/23 06:14:39;;;;;;;1.70;1.40;;;;;;;0.33;90.15;94523.81;5091939;28;20047;-65
2021/01/23 06:17:06;;;;;;;1.42;1.17;;;;;;;0.31;90.18;94528.66;5093047;28;20052;-66
2021/01/23 06:19:38;;;;;;;1.70;1.27;;;;;;;0.30;90.23;94513.69;5093669;28;20075;-65
2021/01/23 06:22:05;;;;;;;1.88;1.38;;;;;;;0.25;90.13;94528.75;5093347;28;20075;-67
2021/01/23 06:24:50;;;;;;;2.13;1.50;;;;;;;0.24;90.49;94527.16;5093163;28;20048;-65
2021/01/23 06:27:16;;;;;;;1.40;1.23;;;;;;;0.27;90.47;94536.50;5093762;28;20055;-65
2021/01/23 06:29:43;;;;;;;1.40;1.27;;;;;;;0.28;90.31;94531.94;5092839;28;20040;-65
2021/01/23 06:32:28;;;;;;;1.58;1.40;;;;;;;0.28;90.04;94531.94;5082519;28;20049;-65
2021/01/23 06:34:56;;;;;;;1.50;1.20;;;;;;;0.25;89.83;94534.09;5071876;28;20063;-67
2021/01/23 06:37:23;;;;;;;1.20;1.10;;;;;;;0.30;89.56;94556.53;5072724;28;20044;-67
2021/01/23 06:40:10;;;;;;;1.60;1.30;;;;;;;0.30;89.65;94556.53;5081889;28;20047;-67
2021/01/23 06:42:38;;;;;;;1.75;1.42;;;;;;;0.29;89.76;94560.28;5092360;28;20040;-67
2021/01/23 06:45:15;;;;;;;1.70;1.38;;;;;;;0.33;89.67;94556.72;5093293;28;20051;-67
2021/01/23 06:47:42;;;;;;;2.17;1.63;;;;;;;0.34;89.51;94562.88;5092706;28;20044;-67
2021/01/23 06:50:09;;;;;;;2.00;1.60;;;;;;;0.34;89.27;94562.88;5092809;28;20044;-67
2021/01/23 06:52:48;;;;;;;1.92;1.50;;;;;;;0.40;89.37;94569.72;5092690;28;20043;-67
2021/01/23 06:55:15;;;;;;;2.10;1.70;;;;;;;0.39;89.01;94570.81;5092477;28;20059;-67
2021/01/23 06:57:46;;;;;;;2.67;1.60;;;;;;;0.46;89.21;94573.88;5093073;28;20039;-67
2021/01/23 07:00:13;;;;;;;2.60;1.73;;;;;;;0.51;88.82;94574.56;5091793;28;20046;-67
2021/01/23 07:02:40;;;;;;;2.22;1.70;;;;;;;0.54;88.67;94589.25;5078452;28;20056;-66
2021/01/23 07:05:07;;;;;;;2.50;1.50;;;;;;;0.58;88.48;94600.97;5071506;28;20037;-68
2021/01/23 07:07:36;;;;;;;2.25;1.70;;;;;;;0.66;88.19;94597.59;5072974;28;20071;-67
2021/01/23 07:10:05;;;;;;;2.28;1.65;;;;;;;0.64;88.05;94599.00;5082132;28;20071;-67
2021/01/23 07:12:37;;;;;;;2.72;1.98;;;;;;;0.66;88.07;94605.63;5093018;28;20043;-67
2021/01/23 07:15:05;;;;;;;2.53;1.80;;;;;;;0.67;87.89;94612.56;5092068;28;20442;-68
2021/01/23 07:17:34;;;;;;;2.67;1.80;;;;;;;0.75;87.90;94627.16;5092187;28;20044;-67
2021/01/23 07:20:03;;;;;;;2.83;1.90;;;;;;;0.72;87.86;94623.19;5092848;28;20131;-65
2021/01/23 07:22:30;;;;;;;3.03;2.17;;;;;;;0.62;88.06;94623.38;5071132;28;20040;-64
2021/01/23 07:24:56;;;;;;;3.65;2.47;;;;;;;0.68;88.20;94632.09;5072258;28;20060;-67
2021/01/23 07:27:24;;;;;;;3.10;2.30;;;;;;;0.67;87.97;94625.97;5070794;28;20045;-67
2021/01/23 07:29:51;;;;;;;3.75;2.13;;;;;;;0.65;88.07;94628.16;5072877;28;20059;-67
2021/01/23 07:32:17;;;;;;;4.38;2.53;;;;;;;0.67;87.96;94636.66;5071566;28;20499;-67
2021/01/23 07:34:59;;;;;;;3.40;2.40;;;;;;;0.67;87.90;94647.38;5072255;28;20044;-64
2021/01/23 07:37:44;;;;;;;3.00;2.33;;;;;;;0.67;87.92;94647.38;5071466;28;20064;-65
2021/01/23 07:40:13;;;;;;;3.88;2.47;;;;;;;0.75;87.90;94638.66;5070711;28;20041;-65
2021/01/23 07:42:39;;;;;;;3.00;2.10;;;;;;;0.80;87.66;94648.50;5072189;28;20037;-65
2021/01/23 07:45:09;;;;;;;3.67;2.47;;;;;;;0.85;87.39;94647.59;5070785;28;20044;-65
2021/01/23 07:47:36;;;;;;;3.33;2.45;;;;;;;0.88;86.91;94649.69;5072136;28;20499;-65
2021/01/23 07:50:08;;;;;;;2.75;2.10;;;;;;;0.82;87.11;94653.56;5070757;28;20097;-65
2021/01/23 07:52:34;;;;;;;2.90;1.88;;;;;;;0.85;87.03;94648.41;5071178;28;20045;-65
2021/01/23 07:55:00;;;;;;;3.95;2.03;;;;;;;0.89;86.80;94643.22;5071160;28;20059;-65
2021/01/23 07:57:26;;;;;;;4.85;2.13;;;;;;;0.84;86.69;94646.81;5111125;28;20054;-65
2021/01/23 07:59:53;;;;;;;3.15;2.15;;;;;;;0.89;86.89;94654.75;5111787;28;20448;-66
2021/01/23 08:02:20;;;;;;;2.75;2.08;;;;;;;0.89;86.72;94654.75;5098741;28;20051;-65
2021/01/23 08:04:47;;;;;;;3.00;2.10;;;;;;;0.83;86.82;94663.97;5091678;28;20043;-65
2021/01/23 08:07:27;;;;;;;3.92;2.03;;;;;;;0.82;87.00;94667.75;5095105;28;20136;-68
2021/01/23 08:10:23;;;;;;;2.65;1.90;;;;;;;0.91;86.87;94670.53;5108303;28;20074;-67
2021/01/23 08:12:57;;;;;;;2.83;2.03;;;;;;;1.00;86.92;94666.06;5004955;28;20412;-68
2021/01/23 08:15:25;;;;;;;2.45;1.88;;;;;;;1.00;86.53;94663.38;5088212;28;20112;-70
2021/01/23 08:17:53;;;;;;;3.05;2.20;;;;;;;1.07;86.29;94668.34;5108731;28;20059;-68
2021/01/23 08:20:30;;;;;;;3.03;1.95;;;;;;;0.95;86.29;94669.63;5107361;28;20051;-70
2021/01/23 08:22:58;;;;;;;3.20;2.20;;;;;;;0.96;86.47;94665.06;5108868;28;20482;-70
2021/01/23 08:25:26;;;;;;;3.10;2.33;;;;;;;1.00;86.45;94671.44;5106935;28;20074;-69
2021/01/23 08:27:53;;;;;;;6.00;2.05;;;;;;;0.95;86.66;94663.50;5108454;28;20051;-70
2021/01/23 08:30:21;;;;;;;3.28;2.22;;;;;;;0.94;86.82;94673.41;5107656;28;20044;-70
2021/01/23 08:32:47;;;;;;;3.00;2.20;;;;;;;0.95;86.77;94674.22;5074020;28;20044;-70
2021/01/23 08:35:14;;;;;;;3.33;2.05;;;;;;;0.98;86.81;94670.91;5087179;28;20581;-71
2021/01/23 08:37:40;;;;;;;4.18;2.30;;;;;;;0.97;86.83;94677.38;5099350;28;20048;-69
2021/01/23 08:40:07;;;;;;;2.78;2.03;;;;;;;0.97;86.97;94677.38;5107993;28;20062;-69
2021/01/23 08:42:34;;;;;;;3.47;2.30;;;;;;;0.96;87.24;94686.50;5107355;28;20044;-70
2021/01/23 08:45:00;;;;;;;4.22;2.88;;;;;;;0.90;87.45;94683.13;5108450;28;20055;-70
2021/01/23 08:47:26;;;;;;;3.22;2.67;;;;;;;0.89;87.35;94681.56;5108234;28;20451;-67
2021/01/23 08:49:51;;;;;;;4.57;2.67;;;;;;;0.87;87.41;94677.56;5108167;28;20082;-70
2021/01/23 08:52:18;;;;;;;4.38;2.83;;;;;;;0.87;87.74;94672.22;5107022;28;20055;-70
2021/01/23 08:54:44;;;;;;;4.10;2.55;;;;;;;0.86;87.68;94673.31;5108520;28;20112;-70
2021/01/23 08:57:10;;;;;;;3.78;2.67;;;;;;;0.85;87.75;94672.50;5107863;28;20056;-69
2021/01/23 08:59:36;;;;;;;3.95;2.83;;;;;;;0.95;87.52;94663.50;5107765;28;20044;-69
2021/01/23 09:02:02;;;;;;;4.45;2.85;;;;;;;0.97;87.49;94667.44;5100879;28;20063;-70
2021/01/23 09:04:28;;;;;;;4.45;3.03;;;;;;;0.94;87.51;94667.25;5087225;28;20127;-70
2021/01/23 09:06:54;;;;;;;4.53;2.90;;;;;;;1.01;87.39;94662.28;5087451;28;20058;-71
2021/01/23 09:09:21;;;;;;;5.40;3.30;;;;;;;0.98;87.33;94662.88;5090833;28;20079;-71
2021/01/23 09:11:47;;;;;;;4.78;3.13;;;;;;;1.03;87.29;94654.75;5108139;28;20051;-70
2021/01/23 09:14:13;;;;;;;6.78;3.72;;;;;;;1.04;87.24;94661.69;5106288;28;20048;-71
2021/01/23 09:16:39;;;;;;;4.78;3.33;;;;;;;1.04;87.13;94661.69;5107476;28;20047;-70
2021/01/23 09:19:05;;;;;;;4.93;3.45;;;;;;;1.07;87.25;94666.44;5106347;28;20054;-70
2021/01/23 09:21:31;;;;;;;6.00;3.80;;;;;;;1.07;87.41;94658.41;5107643;28;20449;-70
2021/01/23 09:23:57;;;;;;;5.35;3.40;;;;;;;1.11;86.96;94667.44;5107298;28;20059;-68
2021/01/23 09:26:23;;;;;;;6.43;3.80;;;;;;;1.19;87.04;94664.06;5106337;28;20051;-70
2021/01/23 09:28:50;;;;;;;6.97;3.55;;;;;;;1.26;86.64;94675.19;5107118;28;20054;-71
2021/01/23 09:31:16;;;;;;;4.40;3.53;;;;;;;1.34;86.46;94671.00;5102205;28;20412;-71
2021/01/23 09:33:42;;;;;;;5.70;3.20;;;;;;;1.43;86.26;94687.19;5088282;28;20055;-70
2021/01/23 09:36:08;;;;;;;5.55;3.53;;;;;;;1.50;86.09;94674.13;5085492;28;20051;-68
2021/01/23 09:38:34;;;;;;;5.15;3.60;;;;;;;1.53;85.74;94679.69;5087713;28;20055;-69
2021/01/23 09:41:00;;;;;;;4.75;3.35;;;;;;;1.58;85.50;94683.38;5105743;28;20052;-68
2021/01/23 09:43:27;;;;;;;5.32;3.47;;;;;;;1.59;85.10;94677.69;5107117;28;20039;-71
2021/01/23 09:45:52;;;;;;;5.50;3.60;;;;;;;1.69;85.43;94680.16;5106598;28;20097;-70
2021/01/23 09:48:20;;;;;;;5.28;3.63;;;;;;;1.72;84.97;94679.56;5108205;28;20048;-69
2021/01/23 09:50:46;;;;;;;4.82;3.30;;;;;;;1.63;84.74;94683.25;5111229;28;20051;-68
2021/01/23 09:53:12;;;;;;;5.63;3.47;;;;;;;1.75;84.91;94689.69;5110320;28;20048;-69
2021/01/23 09:55:38;;;;;;;6.13;3.35;;;;;;;1.72;84.74;94687.63;5111184;28;20104;-69
2021/01/23 09:58:04;;;;;;;5.85;3.42;;;;;;;1.71;84.83;94686.00;5110400;28;20051;-69
2021/01/23 10:00:31;;;;;;;5.07;3.40;;;;;;;1.76;84.56;94683.22;5111597;28;20130;-69
2021/01/23 10:02:56;;;;;;;7.53;3.47;;;;;;;1.80;84.28;94684.19;5093073;28;20085;-68
2021/01/23 10:05:22;;;;;;;5.65;3.42;;;;;;;1.78;83.91;94681.03;5090493;28;20048;-69
2021/01/23 10:07:48;;;;;;;4.22;2.92;;;;;;;1.76;83.69;94683.22;5090378;28;20756;-68
2021/01/23 10:10:14;;;;;;;5.45;3.15;;;;;;;1.80;83.52;94678.84;5103072;28;20056;-68
2021/01/23 10:12:40;;;;;;;6.22;4.03;;;;;;;1.68;83.25;94677.78;5111045;28;20529;-68
2021/01/23 10:15:07;;;;;;;5.40;3.17;;;;;;;1.76;83.24;94677.84;5110091;28;20573;-70
2021/01/23 10:17:34;;;;;;;6.40;3.25;;;;;;;1.79;83.21;94677.25;5111201;28;20383;-68
2021/01/23 10:20:00;;;;;;;4.43;3.00;;;;;;;1.81;82.85;94682.31;5101979;28;20132;-69
2021/01/23 10:22:26;;;;;;;6.50;3.55;;;;;;;1.73;82.47;94678.47;5090534;28;20448;-68
2021/01/23 10:24:52;;;;;;;8.23;3.40;;;;;;;1.74;82.50;94680.03;5089503;28;20419;-68
2021/01/23 10:27:18;;;;;;;4.53;3.28;;;;;;;1.74;81.86;94668.53;5089805;28;20534;-68
2021/01/23 10:29:44;;;;;;;4.88;3.28;;;;;;;1.82;81.83;94663.22;5090613;28;20071;-68
2021/01/23 10:32:10;;;;;;;5.20;2.85;;;;;;;1.77;81.80;94668.69;5091549;28;20114;-68
2021/01/23 10:34:37;;;;;;;6.65;3.42;;;;;;;1.74;82.10;94663.16;5089271;28;20489;-68
2021/01/23 10:37:03;;;;;;;5.13;3.70;;;;;;;1.78;82.03;94664.94;5089599;28;20060;-68
2021/01/23 10:39:32;;;;;;;5.95;2.95;;;;;;;1.88;81.93;94663.09;5095924;28;20048;-68
2021/01/23 10:41:58;;;;;;;4.95;2.95;;;;;;;1.87;80.74;94656.13;5110005;28;20075;-68
2021/01/23 10:44:24;;;;;;;5.13;3.28;;;;;;;1.90;81.00;94660.91;5110285;28;20708;-68
2021/01/23 10:46:50;;;;;;;4.40;3.00;;;;;;;1.95;80.95;94652.75;5109525;28;20078;-68
2021/01/23 10:49:16;;;;;;;4.35;2.78;;;;;;;2.05;80.42;94653.28;5110135;28;20051;-69
2021/01/23 10:51:43;;;;;;;4.95;3.08;;;;;;;2.11;80.28;94645.91;5109653;28;20085;-69
2021/01/23 10:54:09;;;;;;;5.55;3.20;;;;;;;2.05;80.11;94647.13;5110092;28;20619;-70
2021/01/23 10:56:35;;;;;;;4.03;2.92;;;;;;;2.06;79.85;94646.03;5109166;28;20048;-69
2021/01/23 10:59:01;;;;;;;5.18;2.78;;;;;;;2.17;80.00;94639.31;5108394;28;20054;-70
2021/01/23 11:01:28;;;;;;;3.92;2.63;;;;;;;2.34;79.75;94634.03;5103012;28;20051;-70
2021/01/23 11:03:54;;;;;;;4.80;3.00;;;;;;;2.51;79.23;94632.56;5107821;28;20051;-69
2021/01/23 11:06:20;;;;;;;4.85;3.30;;;;;;;2.57;78.66;94620.56;5109405;28;20052;-69
2021/01/23 11:08:47;;;;;;;4.97;2.72;;;;;;;2.71;78.13;94615.88;5109195;28;20055;-68
2021/01/23 11:11:13;;;;;;;6.88;3.15;;;;;;;2.76;77.91;94620.31;5088986;28;20052;-71
2021/01/23 11:13:39;;;;;;;4.05;2.42;;;;;;;2.90;78.14;94625.59;5088684;28;20070;-67
2021/01/23 11:16:05;;;;;;;4.00;2.60;;;;;;;2.91;77.10;94614.53;5089460;28;20091;-68
2021/01/23 11:18:31;;;;;;;5.32;3.30;;;;;;;2.99;77.08;94615.66;5088829;28;20076;-67
2021/01/23 11:20:57;;;;;;;3.92;2.80;;;;;;;3.08;76.59;94619.16;5089640;28;20055;-68
2021/01/23 11:23:23;;;;;;;3.70;2.67;;;;;;;3.03;76.49;94606.66;5088254;28;20450;-67
2021/01/23 11:25:50;;;;;;;4.85;3.17;;;;;;;3.14;76.34;94607.97;5088720;28;20086;-68
2021/01/23 11:28:16;;;;;;;6.00;2.60;;;;;;;3.25;75.94;94603.06;5088913;28;20056;-68
2021/01/23 11:30:42;;;;;;;4.25;2.67;;;;;;;3.36;75.70;94593.59;5088912;28;20044;-68
2021/01/23 11:33:08;;;;;;;3.75;2.53;;;;;;;3.18;74.52;94600.03;5093506;28;20533;-68
2021/01/23 11:35:33;;;;;;;4.28;3.05;;;;;;;3.21;75.00;94591.34;5091968;28;20510;-70
2021/01/23 11:38:01;;;;;;;5.68;2.80;;;;;;;3.14;74.47;94607.16;5109640;28;20044;-67
2021/01/23 11:40:27;;;;;;;4.50;2.60;;;;;;;3.14;75.20;94594.50;5108038;28;20198;-68
2021/01/23 11:42:54;;;;;;;4.35;2.88;;;;;;;3.27;75.40;94595.47;5108643;28;20539;-67